createdAt,value
2023-03-11T00:00:46.952Z,13.37
2023-03-11T00:03:16.633Z,13.43
2023-03-11T00:05:46.885Z,18.90
2023-03-11T00:08:17.346Z,20.60
2023-03-11T00:10:47.440Z,24.07
2023-03-11T00:13:17.596Z,25.43
2023-03-11T00:15:48.485Z,27.17
2023-03-11T00:18:16.544Z,26.23
2023-03-11T00:20:46.701Z,26.30
2023-03-11T00:23:16.119Z,28.77
2023-03-11T00:25:47.040Z,25.53
2023-03-11T00:28:17.426Z,28.43
2023-03-11T00:30:47.437Z,27.40
2023-03-11T00:33:17.381Z,25.00
2023-03-11T00:35:46.029Z,26.50
2023-03-11T00:38:16.529Z,25.30
2023-03-11T00:40:45.778Z,24.93
2023-03-11T00:43:16.437Z,24.23
2023-03-11T00:45:46.048Z,25.07
2023-03-11T00:48:16.479Z,21.27
2023-03-11T00:50:44.837Z,22.30
2023-03-11T00:53:13.273Z,21.77
2023-03-11T00:55:41.312Z,19.83
2023-03-11T00:58:09.640Z,20.80
2023-03-11T01:00:37.675Z,22.53
2023-03-11T01:03:07.186Z,19.20
2023-03-11T01:05:36.032Z,19.97
2023-03-11T01:08:05.711Z,18.60
2023-03-11T01:10:35.296Z,16.57
2023-03-11T01:13:04.378Z,16.20
2023-03-11T01:15:35.434Z,15.10
2023-03-11T01:18:03.885Z,13.83
2023-03-11T01:20:33.428Z,13.73
2023-03-11T01:23:01.442Z,13.17
2023-03-11T01:25:29.660Z,11.77
2023-03-11T01:27:57.666Z,14.20
2023-03-11T01:30:26.605Z,11.27
2023-03-11T01:32:56.894Z,10.27
2023-03-11T01:35:27.194Z,11.33
2023-03-11T01:37:56.986Z,8.90
2023-03-11T01:40:29.979Z,6.50
2023-03-11T01:42:58.436Z,7.73
2023-03-11T01:45:40.353Z,6.40
2023-03-11T01:48:09.936Z,6.70
2023-03-11T01:50:42.080Z,4.67
2023-03-11T01:53:12.403Z,5.47
2023-03-11T01:55:40.732Z,4.00
2023-03-11T01:58:11.786Z,4.80
2023-03-11T02:00:40.418Z,3.63
2023-03-11T02:03:12.519Z,3.33
2023-03-11T02:05:42.099Z,3.03
2023-03-11T02:08:11.875Z,3.30
2023-03-11T02:10:42.127Z,2.83
2023-03-11T02:13:10.963Z,3.90
2023-03-11T02:15:41.056Z,3.00
2023-03-11T02:18:10.224Z,2.07
2023-03-11T02:20:47.913Z,2.07
2023-03-11T02:23:19.537Z,1.80
2023-03-11T02:25:53.932Z,2.37
2023-03-11T02:28:24.356Z,1.40
2023-03-11T02:30:54.234Z,1.40
2023-03-11T02:33:34.889Z,1.50
2023-03-11T02:36:02.947Z,1.53
2023-03-11T02:38:30.939Z,1.40
2023-03-11T02:41:00.466Z,1.20
2023-03-11T02:43:36.833Z,1.23
2023-03-11T02:46:07.911Z,0.90
2023-03-11T02:48:36.516Z,1.10
2023-03-11T02:51:04.772Z,1.17
2023-03-11T02:53:36.815Z,1.20
2023-03-11T02:56:05.314Z,0.90
2023-03-11T02:58:34.809Z,0.90
2023-03-11T03:01:03.473Z,0.70
2023-03-11T03:03:33.068Z,0.87
2023-03-11T03:06:01.159Z,1.60
2023-03-11T03:08:29.254Z,1.10
2023-03-11T03:10:57.237Z,0.73
2023-03-11T03:13:25.211Z,1.20
2023-03-11T03:15:54.858Z,0.87
2023-03-11T03:18:22.923Z,1.20
2023-03-11T03:20:51.740Z,1.20
2023-03-11T03:23:20.340Z,1.23
2023-03-11T03:25:48.406Z,2.67
2023-03-11T03:28:16.479Z,1.30
2023-03-11T03:30:46.060Z,1.20
2023-03-11T03:33:15.443Z,1.33
2023-03-11T03:35:45.316Z,1.00
2023-03-11T03:38:13.493Z,1.10
2023-03-11T03:40:47.705Z,1.07
2023-03-11T03:43:15.676Z,1.20
2023-03-11T03:45:43.644Z,1.37
2023-03-11T03:48:11.619Z,1.20
2023-03-11T03:50:42.227Z,1.27
2023-03-11T03:53:10.254Z,1.73
2023-03-11T03:55:38.236Z,1.57
2023-03-11T03:58:06.232Z,1.90
2023-03-11T04:00:34.646Z,1.10
2023-03-11T04:03:02.702Z,1.10
2023-03-11T04:05:30.733Z,1.93
2023-03-11T04:08:00.659Z,1.87
2023-03-11T04:10:29.224Z,1.37
2023-03-11T04:12:57.198Z,2.30
2023-03-11T04:15:25.944Z,1.77
2023-03-11T04:17:53.914Z,2.17
2023-03-11T04:20:22.698Z,1.80
2023-03-11T04:22:51.071Z,1.73
2023-03-11T04:25:20.472Z,2.57
2023-03-11T04:27:50.064Z,1.90
2023-03-11T04:30:18.426Z,1.90
2023-03-11T04:32:46.477Z,1.57
2023-03-11T04:35:14.516Z,1.60
2023-03-11T04:37:42.567Z,1.27
2023-03-11T04:40:11.837Z,1.50
2023-03-11T04:42:41.255Z,1.63
2023-03-11T04:45:11.549Z,1.23
2023-03-11T04:47:39.639Z,2.87
2023-03-11T04:50:08.185Z,1.43
2023-03-11T04:52:36.248Z,2.10
2023-03-11T04:55:04.335Z,1.43
2023-03-11T04:57:32.349Z,2.17
